Time;durP1;ratioP1;P1;durP2;ratioP2;P2;SDS_P1;SDS_P2;PMS_P1;PMS_P2;Temp;Humidity;BMP_temperature;BMP_pressure;BME280_temperature;BME280_humidity;BME280_pressure;Samples;Min_cycle;Max_cycle;Signal;HPM_P1;HPM_P2
2022/02/07 00:00:06;;;;;;;;;;;21.00;33.20;;;;;;475416;250;2351;-39
2022/02/07 00:02:06;;;;;;;;;;;21.00;33.20;;;;;;475678;250;2229;-39
2022/02/07 00:04:06;;;;;;;;;;;20.90;33.20;;;;;;475724;250;2012;-39
2022/02/07 00:06:07;;;;;;;;;;;20.90;33.20;;;;;;475674;250;1995;-39
2022/02/07 00:08:09;;;;;;;;;;;20.90;33.20;;;;;;475858;250;1483;-39
2022/02/07 00:10:09;;;;;;;;;;;20.90;33.30;;;;;;475645;250;2252;-39
2022/02/07 00:12:11;;;;;;;;;;;20.90;33.30;;;;;;476124;250;1309;-39
2022/02/07 00:14:12;;;;;;;;;;;20.90;33.20;;;;;;476177;250;1084;-39
2022/02/07 00:16:13;;;;;;;;;;;20.90;33.30;;;;;;475717;251;1160;-39
2022/02/07 00:18:16;;;;;;;;;;;20.90;33.20;;;;;;476130;250;1311;-39
2022/02/07 00:20:18;;;;;;;;;;;20.90;33.30;;;;;;476102;250;2474;-39
2022/02/07 00:22:17;;;;;;;;;;;20.90;33.40;;;;;;475698;250;2201;-39
2022/02/07 00:24:19;;;;;;;;;;;20.90;33.40;;;;;;475752;251;1199;-39
2022/02/07 00:26:20;;;;;;;;;;;20.90;33.40;;;;;;475906;250;1557;-39
2022/02/07 00:28:21;;;;;;;;;;;20.90;33.40;;;;;;476169;250;1232;-39
2022/02/07 00:30:23;;;;;;;;;;;20.90;33.40;;;;;;475775;251;1194;-39
2022/02/07 00:32:24;;;;;;;;;;;20.90;33.40;;;;;;475822;250;1219;-39
2022/02/07 00:34:25;;;;;;;;;;;20.90;33.40;;;;;;475735;251;1351;-39
2022/02/07 00:36:27;;;;;;;;;;;20.90;33.40;;;;;;475765;250;1305;-39
2022/02/07 00:38:28;;;;;;;;;;;20.90;33.40;;;;;;476034;250;1193;-39
2022/02/07 00:42:55;;;;;;;;;;;20.90;33.40;;;;;;475425;250;1484;-39
2022/02/07 00:44:55;;;;;;;;;;;20.90;33.40;;;;;;475599;251;2194;-39
2022/02/07 00:46:58;;;;;;;;;;;20.90;33.40;;;;;;475728;250;2166;-39
2022/02/07 00:48:59;;;;;;;;;;;20.80;33.40;;;;;;476015;250;2097;-39
2022/02/07 00:51:00;;;;;;;;;;;20.80;33.40;;;;;;476000;250;1168;-39
2022/02/07 00:53:02;;;;;;;;;;;20.80;33.50;;;;;;475927;250;1436;-39
2022/02/07 00:55:03;;;;;;;;;;;20.80;33.50;;;;;;476187;250;1077;-39
2022/02/07 00:57:04;;;;;;;;;;;20.80;33.50;;;;;;475667;251;1311;-39
2022/02/07 00:59:06;;;;;;;;;;;20.80;33.50;;;;;;475896;250;1072;-39
2022/02/07 01:01:07;;;;;;;;;;;20.80;33.50;;;;;;476043;250;2194;-39
2022/02/07 01:03:08;;;;;;;;;;;20.80;33.40;;;;;;475753;251;1193;-39
2022/02/07 01:05:09;;;;;;;;;;;20.80;33.50;;;;;;475917;250;1212;-39
2022/02/07 01:07:11;;;;;;;;;;;20.80;33.60;;;;;;475915;250;1187;-39
2022/02/07 01:09:17;;;;;;;;;;;20.80;33.60;;;;;;476212;250;1195;-39
2022/02/07 01:11:20;;;;;;;;;;;20.80;33.60;;;;;;475549;250;2162;-39
2022/02/07 01:13:26;;;;;;;;;;;20.80;33.50;;;;;;475429;250;1989;-39
2022/02/07 01:15:26;;;;;;;;;;;20.80;33.50;;;;;;475607;250;2195;-39
2022/02/07 01:20:06;;;;;;;;;;;20.80;33.50;;;;;;475749;251;2189;-39
2022/02/07 01:22:16;;;;;;;;;;;20.80;33.50;;;;;;475045;250;2212;-39
2022/02/07 01:48:07;;;;;;;;;;;20.80;33.60;;;;;;475706;249;1175;-39
2022/02/07 01:50:21;;;;;;;;;;;20.80;33.60;;;;;;474853;250;2309;-39
2022/02/07 01:52:17;;;;;;;;;;;20.80;33.60;;;;;;474665;250;2150;-39
2022/02/07 01:54:23;;;;;;;;;;;20.80;33.60;;;;;;475838;250;2108;-39
2022/02/07 01:56:16;;;;;;;;;;;20.80;33.60;;;;;;475223;250;2330;-39
2022/02/07 01:58:19;;;;;;;;;;;20.80;33.60;;;;;;476168;250;1231;-39
2022/02/07 02:00:19;;;;;;;;;;;20.70;33.70;;;;;;475702;250;2221;-39
2022/02/07 02:02:20;;;;;;;;;;;20.70;33.60;;;;;;475844;250;1158;-39
2022/02/07 02:04:22;;;;;;;;;;;20.80;33.70;;;;;;475987;250;1331;-39
2022/02/07 02:06:23;;;;;;;;;;;20.70;33.60;;;;;;476130;250;1194;-39
2022/02/07 02:08:24;;;;;;;;;;;20.70;33.70;;;;;;476217;250;1183;-39
2022/02/07 02:10:26;;;;;;;;;;;20.70;33.70;;;;;;475991;250;1154;-39
2022/02/07 02:12:30;;;;;;;;;;;20.70;33.70;;;;;;475865;250;1212;-39
2022/02/07 02:14:39;;;;;;;;;;;20.70;33.80;;;;;;475615;250;2163;-39
2022/02/07 02:16:41;;;;;;;;;;;20.70;33.70;;;;;;475388;250;1498;-39
2022/02/07 02:19:10;;;;;;;;;;;20.70;33.70;;;;;;475740;250;2169;-39
2022/02/07 02:21:45;;;;;;;;;;;20.70;33.70;;;;;;474596;250;2196;-39
2022/02/07 02:33:10;;;;;;;;;;;20.70;33.70;;;;;;452082;263;1203;-39
2022/02/07 02:37:28;;;;;;;;;;;20.70;33.70;;;;;;474808;250;1182;-39
2022/02/07 02:46:25;;;;;;;;;;;20.70;33.70;;;;;;475999;249;1407;-39
2022/02/07 02:48:25;;;;;;;;;;;20.70;33.80;;;;;;475706;250;2024;-39
2022/02/07 02:50:30;;;;;;;;;;;20.70;33.70;;;;;;475937;250;2195;-39
2022/02/07 02:52:29;;;;;;;;;;;20.70;33.80;;;;;;475600;250;2121;-39
2022/02/07 02:54:31;;;;;;;;;;;20.70;33.80;;;;;;475791;251;1092;-39
2022/02/07 02:56:32;;;;;;;;;;;20.70;33.80;;;;;;475780;250;1152;-39
2022/02/07 02:58:34;;;;;;;;;;;20.70;33.80;;;;;;475986;250;1018;-39
2022/02/07 03:00:35;;;;;;;;;;;20.70;33.80;;;;;;476142;250;2132;-39
2022/02/07 03:02:37;;;;;;;;;;;20.70;33.80;;;;;;476001;250;1411;-39
2022/02/07 03:04:38;;;;;;;;;;;20.70;33.80;;;;;;475967;250;1038;-39
2022/02/07 03:06:40;;;;;;;;;;;20.60;33.70;;;;;;475779;247;1222;-39
2022/02/07 03:08:41;;;;;;;;;;;20.60;33.80;;;;;;475935;250;1069;-39
2022/02/07 03:10:49;;;;;;;;;;;20.70;33.80;;;;;;475791;251;1109;-39
2022/02/07 03:12:46;;;;;;;;;;;20.60;33.80;;;;;;475406;250;2260;-39
2022/02/07 03:14:48;;;;;;;;;;;20.70;33.80;;;;;;475728;251;1505;-39
2022/02/07 03:16:48;;;;;;;;;;;20.70;33.80;;;;;;475783;247;2067;-39
2022/02/07 03:18:49;;;;;;;;;;;20.70;33.80;;;;;;476199;250;1558;-39
2022/02/07 03:20:50;;;;;;;;;;;20.70;33.80;;;;;;476065;250;2108;-39
2022/02/07 03:22:51;;;;;;;;;;;20.70;33.80;;;;;;475791;250;1315;-39
2022/02/07 03:24:53;;;;;;;;;;;20.60;33.80;;;;;;475760;251;1124;-39
2022/02/07 03:26:54;;;;;;;;;;;20.60;33.80;;;;;;475967;247;1383;-39
2022/02/07 03:28:55;;;;;;;;;;;20.60;33.80;;;;;;475827;250;1279;-39
2022/02/07 03:30:57;;;;;;;;;;;20.60;33.80;;;;;;475736;251;1430;-39
2022/02/07 03:32:58;;;;;;;;;;;20.60;33.90;;;;;;475959;250;1238;-39
2022/02/07 03:34:59;;;;;;;;;;;20.60;33.80;;;;;;475784;251;1341;-39
2022/02/07 03:37:01;;;;;;;;;;;20.60;33.80;;;;;;475781;250;1312;-39
2022/02/07 03:39:02;;;;;;;;;;;20.60;33.80;;;;;;476107;250;1122;-39
2022/02/07 03:41:03;;;;;;;;;;;20.60;33.70;;;;;;476167;250;2199;-39
2022/02/07 03:43:05;;;;;;;;;;;20.60;33.80;;;;;;475738;251;1204;-39
2022/02/07 03:45:06;;;;;;;;;;;20.60;33.80;;;;;;475766;251;994;-39
2022/02/07 03:47:07;;;;;;;;;;;20.60;33.90;;;;;;476057;250;1183;-39
2022/02/07 03:49:08;;;;;;;;;;;20.60;33.90;;;;;;475729;251;1057;-39
2022/02/07 03:51:10;;;;;;;;;;;20.60;33.80;;;;;;475704;250;1222;-39
2022/02/07 03:53:11;;;;;;;;;;;20.60;33.80;;;;;;475824;250;1300;-39
2022/02/07 03:55:13;;;;;;;;;;;20.60;33.80;;;;;;476205;250;1077;-39
2022/02/07 03:57:14;;;;;;;;;;;20.60;33.80;;;;;;475685;251;1253;-39
2022/02/07 03:59:15;;;;;;;;;;;20.60;33.80;;;;;;475715;251;2247;-39
2022/02/07 04:01:19;;;;;;;;;;;20.60;33.80;;;;;;475701;247;2192;-39
2022/02/07 04:03:19;;;;;;;;;;;20.60;33.80;;;;;;475579;251;2121;-39
2022/02/07 04:05:39;;;;;;;;;;;20.70;33.80;;;;;;475724;250;2434;-39
2022/02/07 04:07:27;;;;;;;;;;;20.60;33.80;;;;;;474918;250;2144;-39
2022/02/07 04:09:34;;;;;;;;;;;20.60;33.80;;;;;;475687;251;1065;-39
2022/02/07 04:11:34;;;;;;;;;;;20.80;33.60;;;;;;475380;247;2142;-39
2022/02/07 04:13:33;;;;;;;;;;;21.00;33.20;;;;;;475928;250;2229;-39
2022/02/07 04:15:33;;;;;;;;;;;21.20;32.90;;;;;;475964;250;1392;-39
2022/02/07 04:17:35;;;;;;;;;;;21.30;32.70;;;;;;475950;250;1157;-39
2022/02/07 04:19:36;;;;;;;;;;;21.40;32.60;;;;;;475679;251;2017;-39
2022/02/07 04:21:38;;;;;;;;;;;21.40;32.40;;;;;;475973;250;2116;-39
2022/02/07 04:23:38;;;;;;;;;;;21.50;32.40;;;;;;476129;250;2297;-39
2022/02/07 04:25:39;;;;;;;;;;;21.60;32.30;;;;;;476114;250;1072;-39
2022/02/07 04:27:40;;;;;;;;;;;21.60;32.20;;;;;;475644;251;1736;-39
2022/02/07 04:29:42;;;;;;;;;;;21.70;32.20;;;;;;476010;250;1069;-39
2022/02/07 04:31:43;;;;;;;;;;;21.70;32.00;;;;;;475896;250;1351;-39
2022/02/07 04:33:44;;;;;;;;;;;21.80;32.00;;;;;;475868;250;1192;-39
2022/02/07 04:35:46;;;;;;;;;;;21.80;31.90;;;;;;475737;251;1161;-39
2022/02/07 04:37:47;;;;;;;;;;;21.80;31.90;;;;;;468995;250;1207;-39
2022/02/07 04:39:50;;;;;;;;;;;21.90;31.90;;;;;;467788;254;1044;-39
2022/02/07 04:41:52;;;;;;;;;;;21.90;31.80;;;;;;467667;250;2200;-39
2022/02/07 04:43:55;;;;;;;;;;;21.90;31.80;;;;;;467342;254;2246;-39
2022/02/07 04:46:02;;;;;;;;;;;21.90;31.80;;;;;;467647;250;2416;-39
2022/02/07 04:48:24;;;;;;;;;;;22.00;31.80;;;;;;467479;254;2329;-39
2022/02/07 04:50:27;;;;;;;;;;;22.00;31.70;;;;;;466981;254;2351;-39
2022/02/07 04:52:39;;;;;;;;;;;22.00;31.70;;;;;;467228;254;2124;-39
2022/02/07 04:57:06;;;;;;;;;;;22.00;31.60;;;;;;467801;253;1410;-39
2022/02/07 04:59:07;;;;;;;;;;;22.10;31.60;;;;;;467129;254;2149;-39
2022/02/07 05:01:11;;;;;;;;;;;22.10;31.60;;;;;;467175;254;2141;-39
2022/02/07 05:03:13;;;;;;;;;;;22.10;31.60;;;;;;467201;254;1301;-39
2022/02/07 05:05:21;;;;;;;;;;;22.20;31.50;;;;;;467579;254;2060;-39
2022/02/07 05:14:12;;;;;;;;;;;22.30;31.40;;;;;;467810;254;1064;-39
2022/02/07 05:16:19;;;;;;;;;;;22.30;31.40;;;;;;467382;254;1330;-39
2022/02/07 05:18:18;;;;;;;;;;;22.20;31.40;;;;;;467129;254;2415;-39
2022/02/07 05:20:19;;;;;;;;;;;22.30;31.40;;;;;;467368;254;1061;-39
2022/02/07 05:22:20;;;;;;;;;;;22.30;31.40;;;;;;467373;255;2204;-39
2022/02/07 05:24:21;;;;;;;;;;;22.30;31.30;;;;;;467664;254;1281;-39
2022/02/07 05:26:23;;;;;;;;;;;22.30;31.30;;;;;;467661;254;1342;-39
2022/02/07 05:28:24;;;;;;;;;;;22.40;31.30;;;;;;467866;254;1223;-39
2022/02/07 05:30:25;;;;;;;;;;;22.40;31.30;;;;;;467672;254;1108;-39
2022/02/07 05:32:27;;;;;;;;;;;22.40;31.30;;;;;;467562;254;1205;-39
2022/02/07 05:34:28;;;;;;;;;;;22.40;31.30;;;;;;467299;255;1062;-39
2022/02/07 05:36:29;;;;;;;;;;;22.40;31.30;;;;;;467416;254;1222;-39
2022/02/07 05:38:33;;;;;;;;;;;22.40;31.30;;;;;;467498;254;1162;-39
2022/02/07 05:40:39;;;;;;;;;;;22.50;31.40;;;;;;467294;254;1896;-39
2022/02/07 05:42:34;;;;;;;;;;;22.50;31.40;;;;;;466927;254;2259;-39
2022/02/07 05:44:37;;;;;;;;;;;22.50;31.30;;;;;;467281;254;2358;-39
2022/02/07 05:46:36;;;;;;;;;;;22.50;31.30;;;;;;467257;251;2232;-39
2022/02/07 05:48:38;;;;;;;;;;;22.50;31.20;;;;;;467378;254;1077;-39
2022/02/07 05:50:39;;;;;;;;;;;22.50;31.20;;;;;;467328;255;1078;-39
2022/02/07 05:52:40;;;;;;;;;;;22.50;31.20;;;;;;467249;255;1137;-39
2022/02/07 05:54:42;;;;;;;;;;;22.50;31.20;;;;;;467242;255;1062;-39
2022/02/07 05:56:43;;;;;;;;;;;22.50;31.10;;;;;;467265;254;1117;-39
2022/02/07 05:58:44;;;;;;;;;;;22.60;31.20;;;;;;467348;254;1134;-39
2022/02/07 06:00:46;;;;;;;;;;;22.50;31.20;;;;;;467244;255;1115;-39
2022/02/07 06:02:47;;;;;;;;;;;22.60;31.20;;;;;;467750;254;2149;-39
2022/02/07 06:04:48;;;;;;;;;;;22.60;31.20;;;;;;467698;254;1270;-39
2022/02/07 06:06:50;;;;;;;;;;;22.60;31.20;;;;;;467267;255;1214;-39
2022/02/07 06:08:51;;;;;;;;;;;22.60;31.20;;;;;;467352;255;1290;-39
2022/02/07 06:10:52;;;;;;;;;;;22.60;31.20;;;;;;467282;255;1253;-39
2022/02/07 06:12:54;;;;;;;;;;;22.60;31.10;;;;;;467555;251;1210;-39
2022/02/07 06:14:55;;;;;;;;;;;22.60;31.10;;;;;;467286;255;1632;-39
2022/02/07 06:16:56;;;;;;;;;;;22.60;31.20;;;;;;467538;254;1204;-39
2022/02/07 06:18:58;;;;;;;;;;;22.60;31.10;;;;;;467586;254;1240;-39
2022/02/07 06:21:03;;;;;;;;;;;22.60;31.10;;;;;;467281;254;1259;-39
2022/02/07 06:23:01;;;;;;;;;;;22.60;31.10;;;;;;467033;254;2501;-39
2022/02/07 06:25:03;;;;;;;;;;;22.70;31.10;;;;;;467231;255;1084;-39
2022/02/07 06:27:04;;;;;;;;;;;22.70;31.20;;;;;;467218;254;1348;-39
2022/02/07 06:29:07;;;;;;;;;;;22.70;31.10;;;;;;467185;255;1126;-39
2022/02/07 06:31:06;;;;;;;;;;;22.60;31.10;;;;;;467036;251;2191;-39
2022/02/07 06:33:08;;;;;;;;;;;22.70;31.10;;;;;;467383;254;1101;-39
2022/02/07 06:35:09;;;;;;;;;;;22.70;31.10;;;;;;467210;255;1088;-39
2022/02/07 06:37:11;;;;;;;;;;;22.70;31.10;;;;;;467282;254;1340;-39
2022/02/07 06:39:12;;;;;;;;;;;22.70;31.00;;;;;;473749;250;1135;-39
2022/02/07 06:41:13;;;;;;;;;;;22.80;31.10;;;;;;475466;250;1208;-39
2022/02/07 06:43:15;;;;;;;;;;;22.70;31.00;;;;;;475419;250;2192;-39
2022/02/07 06:45:16;;;;;;;;;;;22.70;31.00;;;;;;475764;250;1224;-39
2022/02/07 06:47:17;;;;;;;;;;;22.70;31.00;;;;;;475310;250;1260;-39
2022/02/07 06:49:18;;;;;;;;;;;22.70;31.10;;;;;;475350;251;1292;-39
2022/02/07 06:51:20;;;;;;;;;;;22.80;31.10;;;;;;475316;251;1373;-39
2022/02/07 06:53:21;;;;;;;;;;;22.70;31.00;;;;;;475569;250;1219;-39
2022/02/07 06:55:23;;;;;;;;;;;22.80;31.00;;;;;;475394;251;1259;-39
2022/02/07 06:57:24;;;;;;;;;;;22.80;31.10;;;;;;475326;250;1248;-39
2022/02/07 06:59:25;;;;;;;;;;;22.80;31.10;;;;;;475249;251;1213;-39
2022/02/07 07:01:27;;;;;;;;;;;22.80;31.10;;;;;;475239;251;2195;-39
2022/02/07 07:03:32;;;;;;;;;;;22.80;31.10;;;;;;475450;250;1241;-39
2022/02/07 07:05:29;;;;;;;;;;;22.80;31.10;;;;;;475068;250;2256;-39
2022/02/07 07:07:31;;;;;;;;;;;22.80;31.10;;;;;;475443;250;1264;-39
2022/02/07 07:09:33;;;;;;;;;;;22.80;31.00;;;;;;475405;251;1237;-40
2022/02/07 07:11:33;;;;;;;;;;;22.80;31.00;;;;;;475245;250;1870;-40
2022/02/07 07:13:41;;;;;;;;;;;22.80;31.00;;;;;;475359;250;1273;-40
2022/02/07 07:15:42;;;;;;;;;;;22.80;31.00;;;;;;474991;250;2344;-39
2022/02/07 07:17:41;;;;;;;;;;;22.80;30.90;;;;;;475149;250;2031;-40
2022/02/07 07:19:43;;;;;;;;;;;22.80;30.80;;;;;;475284;251;1086;-39
2022/02/07 07:21:44;;;;;;;;;;;22.80;30.80;;;;;;475266;251;2200;-39
2022/02/07 07:23:45;;;;;;;;;;;22.90;30.90;;;;;;475146;250;1156;-39
2022/02/07 07:25:47;;;;;;;;;;;22.80;30.70;;;;;;475199;250;1397;-39
2022/02/07 07:27:58;;;;;;;;;;;22.90;30.70;;;;;;475109;250;1263;-39
2022/02/07 07:29:57;;;;;;;;;;;22.80;30.70;;;;;;474833;251;2459;-39
2022/02/07 07:32:02;;;;;;;;;;;22.90;30.80;;;;;;475103;250;1307;-39
2022/02/07 07:34:00;;;;;;;;;;;22.80;30.70;;;;;;475135;250;1388;-40
2022/02/07 07:36:01;;;;;;;;;;;22.90;30.70;;;;;;475182;250;1254;-39
2022/02/07 07:38:03;;;;;;;;;;;22.90;30.70;;;;;;475127;250;1136;-40
2022/02/07 07:40:04;;;;;;;;;;;22.90;30.80;;;;;;474982;250;1374;-39
2022/02/07 07:42:05;;;;;;;;;;;22.90;30.70;;;;;;474963;251;2130;-40
2022/02/07 07:44:07;;;;;;;;;;;22.90;30.70;;;;;;474948;251;1396;-39
2022/02/07 07:46:12;;;;;;;;;;;22.90;30.70;;;;;;474969;250;1152;-39
2022/02/07 07:48:12;;;;;;;;;;;22.90;30.70;;;;;;474655;250;1954;-39
2022/02/07 07:50:17;;;;;;;;;;;22.90;30.60;;;;;;474978;250;2256;-39
2022/02/07 07:52:14;;;;;;;;;;;22.90;30.60;;;;;;474619;250;1820;-40
2022/02/07 07:54:29;;;;;;;;;;;22.90;30.60;;;;;;474789;250;2174;-40
2022/02/07 08:03:45;;;;;;;;;;;22.90;30.50;;;;;;450518;263;2190;-39
2022/02/07 08:05:46;;;;;;;;;;;23.00;30.60;;;;;;462426;251;2052;-39
2022/02/07 08:07:50;;;;;;;;;;;23.00;30.50;;;;;;474056;250;2397;-39
2022/02/07 08:12:05;;;;;;;;;;;22.90;30.50;;;;;;474707;250;1211;-40
2022/02/07 08:14:06;;;;;;;;;;;22.90;30.40;;;;;;475698;250;2299;-40
2022/02/07 08:16:07;;;;;;;;;;;22.90;30.50;;;;;;475218;251;1321;-39
2022/02/07 08:18:08;;;;;;;;;;;23.00;30.50;;;;;;475345;250;1118;-40
2022/02/07 08:20:10;;;;;;;;;;;23.00;30.40;;;;;;474928;250;1257;-39
2022/02/07 08:22:11;;;;;;;;;;;23.00;30.50;;;;;;474860;250;2192;-40
2022/02/07 08:24:12;;;;;;;;;;;23.00;30.40;;;;;;474956;251;1185;-40
2022/02/07 08:26:14;;;;;;;;;;;22.90;30.40;;;;;;474865;251;1396;-40
2022/02/07 08:28:15;;;;;;;;;;;23.00;30.40;;;;;;474731;251;1081;-40
2022/02/07 08:30:17;;;;;;;;;;;23.00;30.40;;;;;;474787;250;1228;-40
2022/02/07 08:32:18;;;;;;;;;;;23.00;30.40;;;;;;474832;251;1245;-39
2022/02/07 08:34:19;;;;;;;;;;;23.00;30.30;;;;;;475066;250;1122;-40
2022/02/07 08:36:21;;;;;;;;;;;23.00;30.20;;;;;;474991;251;1690;-40
2022/02/07 08:38:22;;;;;;;;;;;23.00;30.30;;;;;;474693;250;2217;-40
2022/02/07 08:40:23;;;;;;;;;;;23.00;30.30;;;;;;470375;250;1117;-39
2022/02/07 08:42:24;;;;;;;;;;;23.00;30.30;;;;;;466588;254;2196;-39
2022/02/07 08:44:27;;;;;;;;;;;23.00;30.30;;;;;;466727;254;1259;-39
2022/02/07 08:46:28;;;;;;;;;;;23.00;30.30;;;;;;466675;254;1395;-39
2022/02/07 08:48:29;;;;;;;;;;;23.00;30.20;;;;;;466490;255;1112;-39
2022/02/07 08:50:31;;;;;;;;;;;23.00;30.20;;;;;;466529;254;1083;-40
2022/02/07 08:52:32;;;;;;;;;;;23.00;30.20;;;;;;466576;254;1201;-40
2022/02/07 08:54:34;;;;;;;;;;;23.00;30.20;;;;;;466678;254;1291;-40
2022/02/07 08:56:43;;;;;;;;;;;23.00;30.20;;;;;;466671;254;1942;-40
2022/02/07 08:58:43;;;;;;;;;;;23.00;30.20;;;;;;466356;254;2122;-39
2022/02/07 09:00:49;;;;;;;;;;;23.00;30.10;;;;;;466434;254;2136;-40
2022/02/07 09:03:14;;;;;;;;;;;23.00;30.10;;;;;;466370;254;2201;-39
2022/02/07 09:05:14;;;;;;;;;;;23.00;30.10;;;;;;465750;254;2132;-40
2022/02/07 09:07:05;;;;;;;;;;;23.00;30.10;;;;;;465747;253;2192;-39
2022/02/07 09:09:08;;;;;;;;;;;23.00;30.10;;;;;;466476;254;2231;-40
2022/02/07 09:11:07;;;;;;;;;;;23.00;30.10;;;;;;466484;254;2145;-39
2022/02/07 09:13:09;;;;;;;;;;;23.00;30.10;;;;;;466675;255;1176;-39
2022/02/07 09:15:29;;;;;;;;;;;23.00;30.10;;;;;;466550;254;1230;-39
2022/02/07 09:17:18;;;;;;;;;;;23.00;30.10;;;;;;465974;254;2299;-39
2022/02/07 09:19:20;;;;;;;;;;;23.00;30.00;;;;;;466544;254;1186;-39
2022/02/07 09:21:21;;;;;;;;;;;23.00;30.00;;;;;;466444;254;1345;-39
2022/02/07 09:23:23;;;;;;;;;;;23.00;30.00;;;;;;466475;254;2130;-39
2022/02/07 09:25:24;;;;;;;;;;;23.00;30.00;;;;;;466419;255;1270;-39
2022/02/07 09:27:25;;;;;;;;;;;23.10;30.00;;;;;;466896;254;1244;-39
2022/02/07 09:29:27;;;;;;;;;;;23.10;30.00;;;;;;466659;254;1281;-39
2022/02/07 09:31:28;;;;;;;;;;;23.00;30.00;;;;;;466673;253;1293;-39
2022/02/07 09:33:29;;;;;;;;;;;23.10;30.00;;;;;;466675;254;1202;-39
2022/02/07 09:35:31;;;;;;;;;;;23.10;30.00;;;;;;466685;254;1245;-39
2022/02/07 09:37:32;;;;;;;;;;;23.10;30.00;;;;;;466787;254;1214;-39
2022/02/07 09:39:33;;;;;;;;;;;23.10;30.00;;;;;;466528;255;1159;-39
2022/02/07 09:41:35;;;;;;;;;;;23.10;30.00;;;;;;466420;255;1384;-39
2022/02/07 09:43:43;;;;;;;;;;;23.10;30.00;;;;;;466622;254;2212;-39
2022/02/07 09:45:40;;;;;;;;;;;23.10;30.00;;;;;;466262;254;1914;-39
2022/02/07 09:47:39;;;;;;;;;;;23.10;30.00;;;;;;466528;254;2316;-39
2022/02/07 09:49:40;;;;;;;;;;;23.10;30.00;;;;;;466698;254;1118;-39
2022/02/07 09:51:44;;;;;;;;;;;23.10;30.00;;;;;;466652;253;1247;-39
2022/02/07 09:53:43;;;;;;;;;;;23.10;30.00;;;;;;466828;254;1681;-39
2022/02/07 09:55:45;;;;;;;;;;;23.10;30.00;;;;;;466661;255;1173;-39
2022/02/07 09:57:50;;;;;;;;;;;23.10;30.00;;;;;;466613;254;1173;-39
2022/02/07 09:59:51;;;;;;;;;;;23.10;30.00;;;;;;466510;254;2352;-39
2022/02/07 10:01:52;;;;;;;;;;;23.10;30.00;;;;;;466336;254;1726;-39
2022/02/07 10:03:56;;;;;;;;;;;23.10;30.00;;;;;;466393;254;2145;-39
2022/02/07 10:05:57;;;;;;;;;;;23.10;29.90;;;;;;466246;254;1535;-39
2022/02/07 10:08:02;;;;;;;;;;;23.10;29.90;;;;;;466410;255;2283;-39
2022/02/07 10:10:12;;;;;;;;;;;23.10;29.90;;;;;;466405;254;1296;-39
2022/02/07 10:12:08;;;;;;;;;;;23.10;30.00;;;;;;465955;254;2505;-39
2022/02/07 10:14:10;;;;;;;;;;;23.00;30.00;;;;;;466454;254;2069;-39
2022/02/07 10:16:23;;;;;;;;;;;23.00;30.20;;;;;;466298;251;2256;-39
2022/02/07 10:18:15;;;;;;;;;;;22.80;30.40;;;;;;465507;254;2147;-39
2022/02/07 10:20:38;;;;;;;;;;;22.60;30.60;;;;;;466196;254;2384;-39
2022/02/07 10:36:57;;;;;;;;;;;22.10;31.40;;;;;;466613;254;1285;-39
2022/02/07 10:38:44;;;;;;;;;;;22.00;31.50;;;;;;465545;255;1341;-39
2022/02/07 10:40:43;;;;;;;;;;;22.00;31.50;;;;;;466338;254;1879;-39
2022/02/07 10:42:56;;;;;;;;;;;22.00;31.50;;;;;;473532;251;2276;-39
2022/02/07 10:44:48;;;;;;;;;;;22.00;31.50;;;;;;474201;250;2460;-39
2022/02/07 10:46:47;;;;;;;;;;;22.00;31.60;;;;;;474713;250;2225;-39
2022/02/07 10:48:48;;;;;;;;;;;22.00;31.60;;;;;;475036;250;1250;-39
2022/02/07 10:50:49;;;;;;;;;;;22.00;31.60;;;;;;475082;250;1240;-39
2022/02/07 10:52:51;;;;;;;;;;;22.00;31.60;;;;;;474977;250;1370;-39
2022/02/07 10:54:52;;;;;;;;;;;22.00;31.60;;;;;;475026;250;1139;-39
2022/02/07 10:56:54;;;;;;;;;;;22.00;31.60;;;;;;474971;250;1233;-39
2022/02/07 10:58:55;;;;;;;;;;;22.00;31.60;;;;;;474561;251;1486;-39
2022/02/07 11:01:03;;;;;;;;;;;21.90;31.70;;;;;;474656;251;1889;-39
2022/02/07 11:03:05;;;;;;;;;;;21.90;31.70;;;;;;474303;250;2213;-39
2022/02/07 11:05:09;;;;;;;;;;;21.90;31.70;;;;;;474606;250;2159;-39
2022/02/07 11:07:05;;;;;;;;;;;21.90;31.70;;;;;;474448;250;1781;-39
2022/02/07 11:09:11;;;;;;;;;;;21.90;31.70;;;;;;474770;251;1118;-39
2022/02/07 11:11:30;;;;;;;;;;;21.80;31.70;;;;;;474519;250;1942;-39
2022/02/07 11:13:39;;;;;;;;;;;21.80;31.80;;;;;;473929;250;2221;-39
2022/02/07 11:15:27;;;;;;;;;;;21.80;31.80;;;;;;473838;250;1559;-39
2022/02/07 11:17:29;;;;;;;;;;;21.80;31.80;;;;;;474502;250;2041;-39
2022/02/07 11:19:34;;;;;;;;;;;21.80;31.80;;;;;;474519;250;2111;-39
2022/02/07 11:21:38;;;;;;;;;;;21.80;31.80;;;;;;474211;250;2166;-39
2022/02/07 11:23:35;;;;;;;;;;;21.80;31.70;;;;;;474212;250;2346;-39
2022/02/07 11:25:41;;;;;;;;;;;21.80;31.80;;;;;;474556;250;1455;-39
2022/02/07 11:27:36;;;;;;;;;;;21.70;31.80;;;;;;474344;250;2313;-39
2022/02/07 11:29:34;;;;;;;;;;;21.80;31.80;;;;;;474720;250;2483;-39
2022/02/07 11:31:35;;;;;;;;;;;21.80;31.80;;;;;;474855;250;1225;-39
2022/02/07 11:33:38;;;;;;;;;;;21.80;31.80;;;;;;475015;250;1116;-39
2022/02/07 11:35:38;;;;;;;;;;;21.70;31.80;;;;;;474903;251;1646;-39
2022/02/07 11:37:39;;;;;;;;;;;21.70;31.80;;;;;;474852;251;1208;-39
2022/02/07 11:39:41;;;;;;;;;;;21.70;31.80;;;;;;474816;250;1443;-39
2022/02/07 11:41:42;;;;;;;;;;;21.70;31.80;;;;;;474626;251;1551;-39
2022/02/07 11:43:43;;;;;;;;;;;21.60;31.80;;;;;;474910;251;2201;-39
2022/02/07 11:45:44;;;;;;;;;;;21.60;31.90;;;;;;474778;251;1242;-39
2022/02/07 11:47:46;;;;;;;;;;;21.60;31.90;;;;;;475395;250;1224;-39
2022/02/07 11:49:47;;;;;;;;;;;21.70;31.80;;;;;;475006;250;1421;-39
2022/02/07 11:51:48;;;;;;;;;;;21.70;31.80;;;;;;474796;251;1292;-39
2022/02/07 11:53:51;;;;;;;;;;;21.70;31.80;;;;;;474890;251;1152;-39
2022/02/07 11:56:05;;;;;;;;;;;21.70;31.80;;;;;;474854;250;2003;-39
2022/02/07 11:57:57;;;;;;;;;;;21.70;31.80;;;;;;474080;250;2179;-39
2022/02/07 11:59:54;;;;;;;;;;;21.70;31.80;;;;;;475123;250;1750;-39
2022/02/07 12:01:57;;;;;;;;;;;21.70;31.80;;;;;;474919;250;1234;-39
2022/02/07 12:03:57;;;;;;;;;;;21.70;31.80;;;;;;474593;250;2437;-39
2022/02/07 12:05:58;;;;;;;;;;;21.60;31.80;;;;;;474674;247;1437;-39
2022/02/07 12:07:59;;;;;;;;;;;21.60;31.80;;;;;;475041;251;989;-39
2022/02/07 12:10:03;;;;;;;;;;;21.60;31.80;;;;;;475474;250;1245;-39
2022/02/07 12:12:03;;;;;;;;;;;21.60;31.80;;;;;;475077;250;2255;-39
2022/02/07 12:14:04;;;;;;;;;;;21.60;31.80;;;;;;475182;251;1213;-39
2022/02/07 12:16:06;;;;;;;;;;;21.60;31.80;;;;;;475348;250;1183;-39
2022/02/07 12:18:07;;;;;;;;;;;21.60;31.80;;;;;;474917;251;1196;-39
2022/02/07 12:20:08;;;;;;;;;;;21.60;31.80;;;;;;474905;251;1081;-39
2022/02/07 12:22:09;;;;;;;;;;;21.60;31.80;;;;;;475031;251;1249;-39
2022/02/07 12:24:11;;;;;;;;;;;21.60;31.80;;;;;;474653;251;2201;-39
2022/02/07 12:26:14;;;;;;;;;;;21.60;31.80;;;;;;474676;251;1197;-39
2022/02/07 12:28:16;;;;;;;;;;;21.60;31.80;;;;;;475019;250;2176;-39
2022/02/07 12:30:29;;;;;;;;;;;21.60;31.80;;;;;;474746;251;2361;-39
2022/02/07 12:32:19;;;;;;;;;;;21.60;31.80;;;;;;474164;250;2250;-39
2022/02/07 12:34:20;;;;;;;;;;;21.60;31.70;;;;;;474947;251;1125;-39
2022/02/07 12:36:22;;;;;;;;;;;21.70;31.70;;;;;;474970;251;1524;-39
2022/02/07 12:38:23;;;;;;;;;;;21.80;31.50;;;;;;475458;250;1084;-39
2022/02/07 12:40:24;;;;;;;;;;;21.80;31.40;;;;;;475037;250;1095;-39
2022/02/07 12:42:26;;;;;;;;;;;21.90;31.40;;;;;;475103;251;1229;-39
2022/02/07 12:44:27;;;;;;;;;;;21.90;31.40;;;;;;474956;250;2177;-39
2022/02/07 12:46:29;;;;;;;;;;;21.80;31.40;;;;;;474911;247;1344;-39
2022/02/07 12:48:30;;;;;;;;;;;21.80;31.50;;;;;;474783;250;1283;-39
2022/02/07 12:50:31;;;;;;;;;;;21.70;31.40;;;;;;474747;251;2380;-39
2022/02/07 12:52:32;;;;;;;;;;;21.80;31.50;;;;;;474767;250;1128;-39
2022/02/07 12:54:34;;;;;;;;;;;21.80;31.40;;;;;;475101;250;1287;-39
2022/02/07 12:56:36;;;;;;;;;;;21.70;31.50;;;;;;475103;250;1164;-39
2022/02/07 12:58:36;;;;;;;;;;;21.70;31.50;;;;;;474955;250;2104;-39
2022/02/07 13:00:38;;;;;;;;;;;21.70;31.50;;;;;;475054;250;1167;-39
2022/02/07 13:02:39;;;;;;;;;;;21.70;31.50;;;;;;474832;250;1198;-39
2022/02/07 13:04:40;;;;;;;;;;;21.80;31.50;;;;;;474919;250;2118;-39
2022/02/07 13:06:43;;;;;;;;;;;21.70;31.40;;;;;;474981;250;1387;-39
2022/02/07 13:08:47;;;;;;;;;;;21.70;31.50;;;;;;474771;250;2132;-39
2022/02/07 13:10:45;;;;;;;;;;;21.80;31.40;;;;;;474474;250;1888;-39
2022/02/07 13:13:07;;;;;;;;;;;21.70;31.40;;;;;;474728;251;1379;-39
2022/02/07 13:14:55;;;;;;;;;;;21.70;31.50;;;;;;474119;250;2200;-39
2022/02/07 13:16:56;;;;;;;;;;;21.70;31.40;;;;;;474915;250;1117;-39
2022/02/07 13:18:58;;;;;;;;;;;21.80;31.40;;;;;;474702;250;1166;-39
2022/02/07 13:20:59;;;;;;;;;;;21.70;31.30;;;;;;474612;251;1336;-39